createdAt,value
2022-12-23T00:01:21.521Z,4.46
2022-12-23T00:03:47.808Z,4.52
2022-12-23T00:06:16.591Z,4.52
2022-12-23T00:08:43.227Z,4.52
2022-12-23T00:11:19.995Z,4.58
2022-12-23T00:14:05.504Z,4.58
2022-12-23T00:16:32.020Z,4.59
2022-12-23T00:18:58.369Z,4.59
2022-12-23T00:21:24.671Z,4.58
2022-12-23T00:23:51.545Z,4.60
2022-12-23T00:26:36.108Z,4.59
2022-12-23T00:29:02.429Z,4.54
2022-12-23T00:31:28.853Z,4.55
2022-12-23T00:33:55.205Z,4.55
2022-12-23T00:36:24.478Z,4.55
2022-12-23T00:39:10.248Z,4.54
2022-12-23T00:41:55.007Z,4.55
2022-12-23T00:44:21.710Z,4.53
2022-12-23T00:46:48.438Z,4.55
2022-12-23T00:49:35.942Z,4.57
2022-12-23T00:52:03.803Z,4.55
2022-12-23T00:54:40.341Z,4.59
2022-12-23T00:57:06.694Z,4.63
2022-12-23T00:59:33.753Z,4.61
2022-12-23T01:02:18.613Z,4.65
2022-12-23T01:05:03.441Z,4.61
2022-12-23T01:07:29.757Z,4.61
2022-12-23T01:09:56.066Z,4.64
2022-12-23T01:12:22.399Z,4.64
2022-12-23T01:14:48.727Z,4.66
2022-12-23T01:17:15.303Z,4.69
2022-12-23T01:19:41.817Z,4.68
2022-12-23T01:22:08.229Z,4.70
2022-12-23T01:24:34.602Z,4.73
2022-12-23T01:27:00.976Z,4.74
2022-12-23T01:29:27.553Z,4.71
2022-12-23T01:31:53.945Z,4.72
2022-12-23T01:34:20.333Z,4.69
2022-12-23T01:36:46.659Z,4.67
2022-12-23T01:39:13.011Z,4.67
2022-12-23T01:41:57.981Z,4.68
2022-12-23T01:44:52.385Z,4.60
2022-12-23T01:47:27.833Z,4.59
2022-12-23T01:49:59.085Z,4.57
2022-12-23T01:52:25.611Z,4.49
2022-12-23T01:54:52.493Z,4.50
2022-12-23T01:57:19.063Z,4.51
2022-12-23T02:00:17.649Z,4.52
2022-12-23T02:03:02.753Z,4.57
2022-12-23T02:05:29.415Z,4.63
2022-12-23T02:08:14.818Z,4.64
2022-12-23T02:11:33.582Z,4.68
2022-12-23T02:14:36.883Z,4.68
2022-12-23T02:17:29.773Z,4.68
2022-12-23T02:20:14.933Z,4.65
2022-12-23T02:23:15.313Z,4.68
2022-12-23T02:25:48.819Z,4.65
2022-12-23T02:28:40.755Z,4.69
2022-12-23T02:31:11.027Z,4.71
2022-12-23T02:33:57.824Z,4.69
2022-12-23T02:36:38.302Z,4.67
2022-12-23T02:39:22.047Z,4.67
2022-12-23T02:41:54.496Z,4.65
2022-12-23T02:44:34.537Z,4.63
2022-12-23T02:47:10.266Z,4.61
2022-12-23T02:49:41.048Z,4.60
2022-12-23T02:52:13.493Z,4.60
2022-12-23T02:54:50.058Z,4.60
2022-12-23T02:57:22.740Z,4.63
2022-12-23T02:59:51.800Z,4.65
2022-12-23T03:02:19.415Z,4.67
2022-12-23T03:04:45.890Z,4.67
2022-12-23T03:07:20.485Z,4.69
2022-12-23T03:10:05.124Z,4.70
2022-12-23T03:12:46.636Z,4.71
2022-12-23T03:15:19.196Z,4.68
2022-12-23T03:18:04.300Z,4.72
2022-12-23T03:20:36.582Z,4.65
2022-12-23T03:23:05.949Z,4.67
2022-12-23T03:25:38.731Z,4.71
2022-12-23T03:28:18.716Z,4.75
2022-12-23T03:30:51.031Z,4.73
2022-12-23T03:33:24.007Z,4.68
2022-12-23T03:35:56.501Z,4.62
2022-12-23T03:38:23.831Z,4.61
2022-12-23T03:40:59.728Z,4.62
2022-12-23T03:43:33.033Z,4.66
2022-12-23T03:46:06.916Z,4.68
2022-12-23T03:48:39.066Z,4.72
2022-12-23T03:51:18.236Z,4.77
2022-12-23T03:53:51.668Z,4.79
2022-12-23T03:56:26.024Z,4.80
2022-12-23T03:59:02.688Z,4.78
2022-12-23T04:01:41.026Z,4.82
2022-12-23T04:04:18.193Z,4.85
2022-12-23T04:06:55.548Z,4.84
2022-12-23T04:09:24.675Z,4.84
2022-12-23T04:11:51.918Z,4.86
2022-12-23T04:14:19.556Z,4.84
2022-12-23T04:16:46.907Z,4.85
2022-12-23T04:19:13.409Z,4.90
2022-12-23T04:21:39.756Z,4.89
2022-12-23T04:24:06.258Z,4.93
2022-12-23T04:26:32.785Z,4.95
2022-12-23T04:28:59.063Z,4.88
2022-12-23T04:31:25.375Z,4.89
2022-12-23T04:33:51.708Z,4.88
2022-12-23T04:36:18.027Z,4.94
2022-12-23T04:38:44.348Z,4.94
2022-12-23T04:41:10.709Z,5.00
2022-12-23T04:43:36.984Z,4.96
2022-12-23T04:46:03.437Z,4.96
2022-12-23T04:48:29.762Z,4.95
2022-12-23T04:50:56.089Z,5.02
2022-12-23T04:53:22.486Z,5.06
2022-12-23T04:55:52.133Z,5.05
2022-12-23T04:58:21.841Z,5.05
2022-12-23T05:00:48.198Z,5.02
2022-12-23T05:03:14.600Z,4.97
2022-12-23T05:05:44.321Z,4.93
2022-12-23T05:08:10.701Z,4.90
2022-12-23T05:10:37.365Z,4.92
2022-12-23T05:13:03.734Z,4.92
2022-12-23T05:15:30.523Z,4.87
2022-12-23T05:17:56.833Z,4.85
2022-12-23T05:20:23.113Z,4.89
2022-12-23T05:22:49.852Z,4.94
2022-12-23T05:25:16.194Z,4.97
2022-12-23T05:27:42.493Z,4.93
2022-12-23T05:30:09.427Z,4.98
2022-12-23T05:32:36.140Z,5.01
2022-12-23T05:35:02.503Z,5.02
2022-12-23T05:37:28.828Z,5.00
2022-12-23T05:39:55.130Z,5.07
2022-12-23T05:42:21.456Z,5.02
2022-12-23T05:44:47.776Z,5.09
2022-12-23T05:47:14.172Z,5.10
2022-12-23T05:49:40.447Z,5.06
2022-12-23T05:52:06.838Z,5.11
2022-12-23T05:54:33.134Z,5.09
2022-12-23T05:56:59.456Z,5.09
2022-12-23T05:59:30.690Z,5.06
2022-12-23T06:01:57.914Z,5.03
2022-12-23T06:04:24.560Z,4.99
2022-12-23T06:06:51.017Z,5.01
2022-12-23T06:09:17.300Z,5.00
2022-12-23T06:11:43.619Z,4.97
2022-12-23T06:14:10.356Z,5.02
2022-12-23T06:16:36.714Z,5.00
2022-12-23T06:19:03.316Z,4.98
2022-12-23T06:21:29.721Z,4.97
2022-12-23T06:23:56.013Z,4.99
2022-12-23T06:26:22.577Z,4.92
2022-12-23T06:28:48.912Z,4.96
2022-12-23T06:31:15.785Z,4.95
2022-12-23T06:33:42.230Z,4.93
2022-12-23T06:36:08.862Z,4.95
2022-12-23T06:38:35.176Z,4.99
2022-12-23T06:41:01.621Z,4.96
2022-12-23T06:43:27.958Z,4.96
2022-12-23T06:45:54.322Z,5.01
2022-12-23T06:48:20.679Z,5.00
2022-12-23T06:50:47.055Z,4.99
2022-12-23T06:53:13.996Z,5.02
2022-12-23T06:55:40.351Z,5.05
2022-12-23T06:58:06.905Z,5.00
2022-12-23T07:00:33.250Z,5.02
2022-12-23T07:02:59.755Z,5.05
2022-12-23T07:05:26.194Z,5.01
2022-12-23T07:07:52.464Z,5.02
2022-12-23T07:10:18.778Z,5.00
2022-12-23T07:12:50.545Z,4.98
2022-12-23T07:15:17.355Z,4.87
2022-12-23T07:17:43.682Z,4.89
2022-12-23T07:20:10.652Z,4.92
2022-12-23T07:22:36.932Z,4.92
2022-12-23T07:25:03.270Z,4.94
2022-12-23T07:27:29.541Z,4.93
2022-12-23T07:29:55.895Z,4.93
2022-12-23T07:32:22.228Z,4.91
2022-12-23T07:34:48.556Z,4.95
2022-12-23T07:37:14.856Z,4.94
2022-12-23T07:39:41.171Z,4.92
2022-12-23T07:44:53.797Z,4.96
2022-12-23T07:47:20.094Z,4.95
2022-12-23T07:49:46.447Z,4.96
2022-12-23T07:52:12.730Z,4.93
2022-12-23T07:54:39.042Z,4.93
2022-12-23T07:57:05.383Z,4.89
2022-12-23T07:59:31.724Z,4.89
2022-12-23T08:01:58.139Z,4.92
2022-12-23T08:04:24.672Z,4.96
2022-12-23T08:06:51.000Z,4.97
2022-12-23T08:09:17.325Z,4.87
2022-12-23T08:11:44.284Z,4.92
2022-12-23T08:14:10.609Z,4.92
2022-12-23T08:16:43.421Z,4.98
2022-12-23T08:19:10.423Z,4.94
2022-12-23T08:21:36.741Z,4.96
2022-12-23T08:24:03.135Z,4.97
2022-12-23T08:26:29.392Z,5.06
2022-12-23T08:28:55.741Z,5.00
2022-12-23T08:31:25.323Z,4.99
2022-12-23T08:33:55.103Z,5.01
2022-12-23T08:36:25.038Z,5.00
2022-12-23T08:38:53.074Z,5.02
2022-12-23T08:41:28.635Z,5.00
2022-12-23T08:43:55.116Z,4.98
2022-12-23T08:46:22.031Z,5.01
2022-12-23T08:48:49.792Z,4.99
2022-12-23T08:51:18.600Z,4.99
2022-12-23T08:53:45.621Z,4.97
2022-12-23T08:56:14.964Z,5.02
2022-12-23T08:58:45.290Z,5.10
2022-12-23T09:01:14.325Z,5.08
2022-12-23T09:03:41.004Z,5.03
2022-12-23T09:06:23.315Z,5.09
2022-12-23T09:08:55.698Z,5.05
2022-12-23T09:11:25.603Z,5.09
2022-12-23T09:13:52.108Z,5.11
2022-12-23T09:16:19.303Z,5.05
2022-12-23T09:18:45.636Z,5.08
2022-12-23T09:21:14.804Z,5.09
2022-12-23T09:23:41.498Z,5.16
2022-12-23T09:26:09.388Z,5.16
2022-12-23T09:28:35.857Z,5.04
2022-12-23T09:31:09.753Z,5.11
2022-12-23T09:33:36.495Z,5.06
2022-12-23T09:36:04.677Z,5.12
2022-12-23T09:38:31.364Z,5.14
2022-12-23T09:41:03.749Z,5.16
2022-12-23T09:43:56.788Z,5.17
2022-12-23T09:46:27.429Z,5.16
2022-12-23T09:49:13.143Z,5.18
2022-12-23T09:51:39.406Z,5.19
2022-12-23T09:54:22.270Z,5.19
2022-12-23T09:56:54.367Z,5.19
2022-12-23T09:59:59.203Z,5.16
2022-12-23T10:02:28.671Z,5.21
2022-12-23T10:05:29.468Z,5.29
2022-12-23T10:08:02.430Z,5.32
2022-12-23T10:10:45.938Z,5.26
2022-12-23T10:13:41.265Z,5.31
2022-12-23T10:16:14.793Z,5.34
2022-12-23T10:18:52.284Z,5.31
2022-12-23T10:21:31.080Z,5.38
2022-12-23T10:24:03.524Z,5.39
2022-12-23T10:26:43.133Z,5.34
2022-12-23T10:29:20.912Z,5.30
2022-12-23T10:32:22.484Z,5.29
2022-12-23T10:34:56.790Z,5.35
2022-12-23T10:37:51.020Z,5.46
2022-12-23T10:40:25.203Z,5.42
2022-12-23T10:43:15.057Z,5.43
2022-12-23T10:46:23.213Z,5.41
2022-12-23T10:49:14.956Z,5.49
2022-12-23T10:52:05.551Z,5.43
2022-12-23T10:54:36.349Z,5.43
2022-12-23T10:57:05.592Z,5.43
2022-12-23T10:59:35.990Z,5.43
2022-12-23T11:02:12.780Z,5.52
2022-12-23T11:04:43.435Z,5.54
2022-12-23T11:10:07.233Z,5.52
2022-12-23T11:12:42.973Z,5.58
2022-12-23T11:15:32.226Z,5.66
2022-12-23T11:17:58.843Z,5.66
2022-12-23T11:20:25.168Z,5.65
2022-12-23T11:22:53.411Z,5.68
2022-12-23T11:25:31.795Z,5.64
2022-12-23T11:28:05.931Z,5.64
2022-12-23T11:30:37.505Z,5.67
2022-12-23T11:33:04.198Z,5.71
2022-12-23T11:35:33.063Z,5.82
2022-12-23T11:38:01.550Z,5.78
2022-12-23T11:40:31.186Z,5.63
2022-12-23T11:43:03.560Z,5.75
2022-12-23T11:45:35.314Z,5.77
2022-12-23T11:48:04.346Z,5.81
2022-12-23T11:50:40.707Z,5.68
2022-12-23T11:53:21.073Z,5.71
2022-12-23T11:56:02.894Z,5.84
2022-12-23T11:58:32.547Z,5.87
2022-12-23T12:01:06.376Z,5.94
2022-12-23T12:03:43.304Z,5.80
2022-12-23T12:06:15.027Z,5.70
2022-12-23T12:08:42.475Z,5.70
2022-12-23T12:11:19.273Z,5.81
2022-12-23T12:13:49.491Z,5.75
2022-12-23T12:16:49.102Z,5.83
2022-12-23T12:19:24.274Z,5.89
2022-12-23T12:21:54.483Z,5.85
2022-12-23T12:24:31.485Z,5.77
2022-12-23T12:27:03.394Z,5.77
2022-12-23T12:29:38.801Z,5.80
2022-12-23T12:32:14.359Z,5.81
2022-12-23T12:34:58.679Z,5.80
2022-12-23T12:37:48.643Z,5.83
2022-12-23T12:40:25.882Z,5.74
2022-12-23T12:43:05.226Z,5.80
2022-12-23T12:46:19.779Z,5.72
2022-12-23T12:48:58.672Z,5.84
2022-12-23T12:51:31.590Z,5.81
2022-12-23T12:54:17.086Z,5.79
2022-12-23T12:56:57.619Z,5.62
2022-12-23T12:59:36.401Z,5.55
2022-12-23T13:02:24.616Z,5.53
2022-12-23T13:05:19.098Z,5.65
2022-12-23T13:08:12.864Z,5.80
2022-12-23T13:10:53.887Z,5.75
2022-12-23T13:13:20.164Z,5.86
2022-12-23T13:16:22.261Z,5.91
2022-12-23T13:19:05.954Z,5.86
2022-12-23T13:22:00.551Z,5.83
2022-12-23T13:24:40.383Z,5.83
2022-12-23T13:27:21.769Z,5.88
2022-12-23T13:30:33.296Z,5.95
2022-12-23T13:33:36.691Z,6.02
2022-12-23T13:36:40.561Z,6.03
2022-12-23T13:39:39.393Z,6.06
2022-12-23T13:42:13.089Z,6.05
2022-12-23T13:44:39.856Z,6.05
2022-12-23T13:47:35.361Z,6.01
2022-12-23T13:50:15.001Z,5.98
2022-12-23T13:53:00.001Z,5.93
2022-12-23T13:55:55.636Z,5.87
2022-12-23T13:58:25.928Z,5.87
2022-12-23T14:01:18.276Z,5.81
2022-12-23T14:03:48.451Z,5.80
2022-12-23T14:06:43.336Z,5.82
2022-12-23T14:09:16.043Z,5.83
2022-12-23T14:11:44.808Z,5.84
2022-12-23T14:14:21.359Z,5.85
2022-12-23T14:16:53.393Z,5.83
2022-12-23T14:19:30.989Z,5.86
2022-12-23T14:22:06.090Z,5.84
2022-12-23T14:24:47.182Z,5.80
2022-12-23T14:27:42.470Z,5.80
2022-12-23T14:30:14.216Z,5.84
2022-12-23T14:32:58.060Z,5.78
2022-12-23T14:35:38.508Z,5.83
2022-12-23T14:38:14.358Z,5.79
2022-12-23T14:40:43.769Z,5.84
2022-12-23T14:43:22.552Z,5.89
2022-12-23T14:45:51.030Z,5.90
2022-12-23T14:48:35.883Z,5.86
2022-12-23T14:51:31.314Z,5.77
2022-12-23T14:53:57.585Z,5.60
2022-12-23T14:56:35.903Z,5.55
2022-12-23T14:59:16.289Z,5.62
2022-12-23T15:01:47.761Z,5.67
2022-12-23T15:04:14.053Z,5.73
2022-12-23T15:06:54.432Z,5.64
2022-12-23T15:09:28.466Z,5.62
2022-12-23T15:11:57.358Z,5.68
2022-12-23T15:14:38.029Z,5.62
2022-12-23T15:17:26.647Z,5.48
2022-12-23T15:19:54.143Z,5.49
2022-12-23T15:22:28.315Z,5.62
2022-12-23T15:24:58.387Z,5.58
2022-12-23T15:27:27.683Z,5.55
2022-12-23T15:29:54.681Z,5.51
2022-12-23T15:32:23.720Z,5.52
2022-12-23T15:34:52.094Z,5.48
2022-12-23T15:37:25.458Z,5.46
2022-12-23T15:40:00.289Z,5.53
2022-12-23T15:42:31.640Z,5.47
2022-12-23T15:44:58.444Z,5.34
2022-12-23T15:47:29.009Z,5.34
2022-12-23T15:49:59.751Z,5.37
2022-12-23T15:52:30.941Z,5.36
2022-12-23T15:55:11.954Z,5.32
2022-12-23T15:57:49.804Z,5.25
2022-12-23T16:00:22.496Z,5.27
2022-12-23T16:03:01.055Z,5.20
2022-12-23T16:05:32.069Z,5.21
2022-12-23T16:08:13.737Z,5.20
2022-12-23T16:10:41.047Z,5.22
2022-12-23T16:13:18.224Z,5.24
2022-12-23T16:15:45.002Z,5.23
2022-12-23T16:18:18.215Z,5.30
2022-12-23T16:21:05.506Z,5.19
2022-12-23T16:23:35.936Z,5.13
2022-12-23T16:26:03.825Z,5.07
2022-12-23T16:28:40.165Z,5.15
2022-12-23T16:31:07.885Z,5.23
2022-12-23T16:33:42.486Z,5.16
2022-12-23T16:36:24.140Z,5.08
2022-12-23T16:38:56.297Z,4.99
2022-12-23T16:41:22.861Z,4.96
2022-12-23T16:43:52.555Z,4.97
2022-12-23T16:46:21.817Z,5.00
2022-12-23T16:48:50.950Z,4.94
2022-12-23T16:51:20.161Z,4.83
2022-12-23T16:53:48.245Z,4.70
2022-12-23T16:56:17.001Z,4.54
2022-12-23T16:58:44.142Z,4.63
2022-12-23T17:01:18.911Z,4.63
2022-12-23T17:03:45.234Z,4.67
2022-12-23T17:06:15.894Z,4.76
2022-12-23T17:08:42.960Z,4.75
2022-12-23T17:11:41.141Z,4.69
2022-12-23T17:14:15.867Z,4.64
2022-12-23T17:16:42.711Z,4.57
2022-12-23T17:19:09.119Z,4.60
2022-12-23T17:22:12.583Z,4.63
2022-12-23T17:24:38.932Z,4.73
2022-12-23T17:27:13.076Z,4.78
2022-12-23T17:29:39.562Z,4.63
2022-12-23T17:32:06.006Z,4.63
2022-12-23T17:34:32.308Z,4.61
2022-12-23T17:37:00.594Z,4.66
2022-12-23T17:39:26.942Z,4.81
2022-12-23T17:41:53.301Z,4.77
2022-12-23T17:44:20.082Z,4.75
2022-12-23T17:46:46.952Z,4.62
2022-12-23T17:49:13.305Z,4.57
2022-12-23T17:51:41.105Z,4.52
2022-12-23T17:54:20.406Z,4.44
2022-12-23T17:56:46.756Z,4.42
2022-12-23T17:59:13.057Z,4.46
2022-12-23T18:01:39.396Z,4.51
2022-12-23T18:04:05.680Z,4.65
2022-12-23T18:06:32.040Z,4.59
2022-12-23T18:08:58.376Z,4.67
2022-12-23T18:11:34.460Z,4.65
2022-12-23T18:14:01.611Z,4.63
2022-12-23T18:16:28.103Z,4.60
2022-12-23T18:18:54.549Z,4.56
2022-12-23T18:21:23.693Z,4.53
2022-12-23T18:23:51.114Z,4.56
2022-12-23T18:26:17.419Z,4.60
2022-12-23T18:28:44.440Z,4.60
2022-12-23T18:31:17.087Z,4.62
2022-12-23T18:33:43.753Z,4.60
2022-12-23T18:36:25.466Z,4.58
2022-12-23T18:38:52.718Z,4.59
2022-12-23T18:41:20.237Z,4.59
2022-12-23T18:43:46.940Z,4.55
2022-12-23T18:46:13.286Z,4.64
2022-12-23T18:48:39.622Z,4.61
2022-12-23T18:51:06.347Z,4.56
2022-12-23T18:53:32.688Z,4.65
2022-12-23T18:55:59.045Z,4.68
2022-12-23T18:58:25.413Z,4.65
2022-12-23T19:00:53.022Z,4.62
2022-12-23T19:03:19.260Z,4.62
2022-12-23T19:05:47.037Z,4.63
2022-12-23T19:08:13.474Z,4.66
2022-12-23T19:10:39.826Z,4.68
2022-12-23T19:13:06.354Z,4.70
2022-12-23T19:15:32.704Z,4.69
2022-12-23T19:17:59.029Z,4.66
2022-12-23T19:20:25.344Z,4.68
2022-12-23T19:22:51.666Z,4.70
2022-12-23T19:25:18.934Z,4.63
2022-12-23T19:27:46.325Z,4.55
2022-12-23T19:30:16.376Z,4.54
2022-12-23T19:32:43.267Z,4.42
2022-12-23T19:35:14.509Z,4.49
2022-12-23T19:37:42.046Z,4.45
2022-12-23T19:40:09.475Z,4.45
2022-12-23T19:42:39.594Z,4.55
2022-12-23T19:45:07.757Z,4.59
2022-12-23T19:47:34.200Z,4.59
2022-12-23T19:50:00.518Z,4.61
2022-12-23T19:52:27.006Z,4.59
2022-12-23T19:54:53.330Z,4.58
2022-12-23T19:57:19.947Z,4.58
2022-12-23T19:59:46.335Z,4.57
2022-12-23T20:02:15.207Z,4.58
2022-12-23T20:04:42.993Z,4.66
2022-12-23T20:07:10.110Z,4.66
2022-12-23T20:09:36.565Z,4.62
2022-12-23T20:12:03.475Z,4.63
2022-12-23T20:14:33.880Z,4.61
2022-12-23T20:17:00.701Z,4.55
2022-12-23T20:19:27.225Z,4.55
2022-12-23T20:21:53.586Z,4.49
2022-12-23T20:24:19.885Z,4.49
2022-12-23T20:26:46.150Z,4.56
2022-12-23T20:29:12.436Z,4.51
2022-12-23T20:31:39.290Z,4.51
2022-12-23T20:34:08.266Z,4.47
2022-12-23T20:36:35.904Z,4.50
2022-12-23T20:39:03.328Z,4.48
2022-12-23T20:41:31.145Z,4.44
2022-12-23T20:46:45.086Z,4.36
2022-12-23T20:49:11.476Z,4.30
2022-12-23T20:51:37.758Z,4.29
2022-12-23T20:54:04.090Z,4.19
2022-12-23T20:56:31.429Z,4.16
2022-12-23T20:58:59.017Z,4.07
2022-12-23T21:01:32.893Z,4.09
2022-12-23T21:04:01.384Z,4.02
2022-12-23T21:06:29.522Z,3.89
2022-12-23T21:08:58.676Z,3.92
2022-12-23T21:11:28.302Z,3.89
2022-12-23T21:13:55.102Z,3.93
2022-12-23T21:16:21.603Z,3.97
2022-12-23T21:18:52.515Z,3.84
2022-12-23T21:21:26.411Z,3.84
2022-12-23T21:23:54.546Z,3.93
2022-12-23T21:26:23.467Z,3.83
2022-12-23T21:28:51.850Z,3.83
2022-12-23T21:31:21.627Z,3.84
2022-12-23T21:33:49.694Z,3.82
2022-12-23T21:36:20.532Z,3.88
2022-12-23T21:38:48.272Z,3.88
2022-12-23T21:41:19.602Z,3.87
2022-12-23T21:43:46.544Z,3.84
2022-12-23T21:46:15.809Z,3.90
2022-12-23T21:48:42.907Z,3.94
2022-12-23T21:51:15.085Z,3.91
2022-12-23T21:53:42.911Z,3.87
2022-12-23T21:56:18.306Z,3.91
2022-12-23T21:58:45.121Z,3.92
2022-12-23T22:01:13.260Z,3.87
2022-12-23T22:03:40.377Z,3.87
2022-12-23T22:06:10.745Z,3.89
2022-12-23T22:08:37.903Z,3.92
2022-12-23T22:11:28.420Z,3.89
2022-12-23T22:13:59.463Z,3.84
2022-12-23T22:16:27.662Z,3.85
2022-12-23T22:18:55.486Z,3.83
2022-12-23T22:21:24.254Z,3.79
2022-12-23T22:23:51.833Z,3.75
2022-12-23T22:26:25.155Z,3.76
2022-12-23T22:28:53.808Z,3.83
2022-12-23T22:31:29.688Z,3.86
2022-12-23T22:33:56.225Z,3.82
2022-12-23T22:36:22.814Z,3.79
2022-12-23T22:38:55.051Z,3.88
2022-12-23T22:41:21.728Z,3.89
2022-12-23T22:43:48.360Z,3.82
2022-12-23T22:46:15.434Z,3.81
2022-12-23T22:48:42.106Z,3.79
2022-12-23T22:51:16.116Z,3.79
2022-12-23T22:53:42.478Z,3.73
2022-12-23T22:56:11.557Z,3.75
2022-12-23T22:58:38.123Z,3.73
2022-12-23T23:01:04.961Z,3.76
2022-12-23T23:03:32.141Z,3.77
2022-12-23T23:06:04.913Z,3.80
2022-12-23T23:08:31.523Z,3.86
2022-12-23T23:10:59.408Z,3.77
2022-12-23T23:13:31.790Z,3.73
2022-12-23T23:15:58.600Z,3.78
2022-12-23T23:18:25.412Z,3.71
2022-12-23T23:20:52.141Z,3.68
2022-12-23T23:23:19.166Z,3.76
2022-12-23T23:25:45.784Z,3.65
2022-12-23T23:28:12.671Z,3.67
2022-12-23T23:30:39.295Z,3.61
2022-12-23T23:33:06.810Z,3.65
2022-12-23T23:35:33.410Z,3.71
2022-12-23T23:37:59.721Z,3.69
2022-12-23T23:40:26.909Z,3.71
2022-12-23T23:42:54.014Z,3.68
2022-12-23T23:45:20.582Z,3.66
2022-12-23T23:47:46.892Z,3.70
2022-12-23T23:50:13.332Z,3.59
2022-12-23T23:52:39.650Z,3.65
2022-12-23T23:55:06.635Z,3.65
2022-12-23T23:57:33.599Z,3.64
2022-12-23T23:59:59.950Z,3.65
